sensor_id;sensor_type;location;lat;lon;timestamp;P1;durP1;ratioP1;P2;durP2;ratioP2
23838;SDS011;12100;44.384;20.272;2023-01-01T00:01:40;61.50;;;36.50;;
23838;SDS011;12100;44.384;20.272;2023-01-01T00:04:08;65.25;;;37.20;;
23838;SDS011;12100;44.384;20.272;2023-01-01T00:06:36;79.30;;;47.45;;
23838;SDS011;12100;44.384;20.272;2023-01-01T00:09:02;83.85;;;46.13;;
23838;SDS011;12100;44.384;20.272;2023-01-01T00:11:46;71.32;;;48.20;;
23838;SDS011;12100;44.384;20.272;2023-01-01T00:14:12;128.52;;;83.30;;
23838;SDS011;12100;44.384;20.272;2023-01-01T00:16:38;85.53;;;54.88;;
23838;SDS011;12100;44.384;20.272;2023-01-01T00:19:04;96.50;;;57.50;;
23838;SDS011;12100;44.384;20.272;2023-01-01T00:21:29;92.47;;;56.03;;
23838;SDS011;12100;44.384;20.272;2023-01-01T00:23:55;72.10;;;43.15;;
23838;SDS011;12100;44.384;20.272;2023-01-01T00:26:21;75.40;;;50.13;;
23838;SDS011;12100;44.384;20.272;2023-01-01T00:28:47;94.07;;;58.00;;
23838;SDS011;12100;44.384;20.272;2023-01-01T00:31:13;77.22;;;49.10;;
23838;SDS011;12100;44.384;20.272;2023-01-01T00:33:51;74.80;;;48.13;;
23838;SDS011;12100;44.384;20.272;2023-01-01T00:36:18;78.10;;;50.00;;
23838;SDS011;12100;44.384;20.272;2023-01-01T00:38:44;90.80;;;52.28;;
23838;SDS011;12100;44.384;20.272;2023-01-01T00:41:11;87.15;;;52.22;;
23838;SDS011;12100;44.384;20.272;2023-01-01T00:43:37;103.55;;;60.58;;
23838;SDS011;12100;44.384;20.272;2023-01-01T00:46:04;131.63;;;80.05;;
23838;SDS011;12100;44.384;20.272;2023-01-01T00:48:31;101.72;;;61.13;;
23838;SDS011;12100;44.384;20.272;2023-01-01T00:50:57;85.43;;;53.85;;
23838;SDS011;12100;44.384;20.272;2023-01-01T00:53:23;67.93;;;41.78;;
23838;SDS011;12100;44.384;20.272;2023-01-01T00:55:49;65.88;;;38.67;;
23838;SDS011;12100;44.384;20.272;2023-01-01T00:58:16;92.10;;;53.60;;
23838;SDS011;12100;44.384;20.272;2023-01-01T01:00:43;150.10;;;84.43;;
23838;SDS011;12100;44.384;20.272;2023-01-01T01:03:10;97.60;;;56.95;;
23838;SDS011;12100;44.384;20.272;2023-01-01T01:06:14;73.93;;;45.77;;
23838;SDS011;12100;44.384;20.272;2023-01-01T01:08:40;69.53;;;44.15;;
23838;SDS011;12100;44.384;20.272;2023-01-01T01:11:09;70.28;;;42.72;;
23838;SDS011;12100;44.384;20.272;2023-01-01T01:13:43;68.03;;;40.30;;
23838;SDS011;12100;44.384;20.272;2023-01-01T01:16:15;87.63;;;51.75;;
23838;SDS011;12100;44.384;20.272;2023-01-01T01:18:43;64.03;;;40.50;;
23838;SDS011;12100;44.384;20.272;2023-01-01T01:21:09;61.75;;;36.30;;
23838;SDS011;12100;44.384;20.272;2023-01-01T01:23:38;57.75;;;33.85;;
23838;SDS011;12100;44.384;20.272;2023-01-01T01:28:38;85.55;;;47.42;;
23838;SDS011;12100;44.384;20.272;2023-01-01T01:31:03;119.05;;;62.25;;
23838;SDS011;12100;44.384;20.272;2023-01-01T01:33:29;113.22;;;63.70;;
23838;SDS011;12100;44.384;20.272;2023-01-01T01:35:55;124.13;;;63.35;;
23838;SDS011;12100;44.384;20.272;2023-01-01T01:38:21;111.57;;;62.55;;
23838;SDS011;12100;44.384;20.272;2023-01-01T01:40:46;151.95;;;72.70;;
23838;SDS011;12100;44.384;20.272;2023-01-01T01:46:03;88.85;;;50.03;;
23838;SDS011;12100;44.384;20.272;2023-01-01T01:48:50;61.97;;;35.47;;
23838;SDS011;12100;44.384;20.272;2023-01-01T01:51:19;83.20;;;44.90;;
23838;SDS011;12100;44.384;20.272;2023-01-01T01:53:51;66.70;;;42.85;;
23838;SDS011;12100;44.384;20.272;2023-01-01T01:56:27;61.78;;;37.92;;
23838;SDS011;12100;44.384;20.272;2023-01-01T01:59:00;50.03;;;31.38;;
23838;SDS011;12100;44.384;20.272;2023-01-01T02:01:26;45.92;;;27.98;;
23838;SDS011;12100;44.384;20.272;2023-01-01T02:03:59;56.63;;;33.72;;
23838;SDS011;12100;44.384;20.272;2023-01-01T02:06:26;67.30;;;38.10;;
23838;SDS011;12100;44.384;20.272;2023-01-01T02:08:54;101.05;;;54.72;;
23838;SDS011;12100;44.384;20.272;2023-01-01T02:11:21;91.70;;;50.78;;
23838;SDS011;12100;44.384;20.272;2023-01-01T02:13:47;88.63;;;49.92;;
23838;SDS011;12100;44.384;20.272;2023-01-01T02:21:49;41.97;;;24.17;;
23838;SDS011;12100;44.384;20.272;2023-01-01T02:30:08;35.47;;;24.40;;
23838;SDS011;12100;44.384;20.272;2023-01-01T02:35:02;99.22;;;51.05;;
23838;SDS011;12100;44.384;20.272;2023-01-01T02:37:52;83.07;;;47.22;;
23838;SDS011;12100;44.384;20.272;2023-01-01T02:40:23;108.05;;;59.55;;
23838;SDS011;12100;44.384;20.272;2023-01-01T02:42:51;107.60;;;61.58;;
23838;SDS011;12100;44.384;20.272;2023-01-01T02:45:19;109.63;;;63.20;;
23838;SDS011;12100;44.384;20.272;2023-01-01T02:47:45;158.25;;;75.00;;
23838;SDS011;12100;44.384;20.272;2023-01-01T02:50:15;156.05;;;76.30;;
23838;SDS011;12100;44.384;20.272;2023-01-01T02:58:08;36.47;;;23.50;;
23838;SDS011;12100;44.384;20.272;2023-01-01T03:01:02;41.05;;;26.45;;
23838;SDS011;12100;44.384;20.272;2023-01-01T03:04:05;59.80;;;36.38;;
23838;SDS011;12100;44.384;20.272;2023-01-01T03:14:30;59.50;;;38.33;;
23838;SDS011;12100;44.384;20.272;2023-01-01T03:17:26;96.53;;;49.92;;
23838;SDS011;12100;44.384;20.272;2023-01-01T03:20:00;80.22;;;47.20;;
23838;SDS011;12100;44.384;20.272;2023-01-01T03:22:31;54.25;;;31.63;;
23838;SDS011;12100;44.384;20.272;2023-01-01T03:25:06;41.67;;;25.10;;
23838;SDS011;12100;44.384;20.272;2023-01-01T03:27:49;35.58;;;20.70;;
23838;SDS011;12100;44.384;20.272;2023-01-01T03:30:21;25.75;;;17.70;;
23838;SDS011;12100;44.384;20.272;2023-01-01T03:32:53;26.77;;;19.30;;
23838;SDS011;12100;44.384;20.272;2023-01-01T03:40:49;42.30;;;26.45;;
23838;SDS011;12100;44.384;20.272;2023-01-01T03:43:21;71.15;;;40.47;;
23838;SDS011;12100;44.384;20.272;2023-01-01T03:46:14;52.72;;;34.03;;
23838;SDS011;12100;44.384;20.272;2023-01-01T03:48:46;49.30;;;26.80;;
23838;SDS011;12100;44.384;20.272;2023-01-01T03:54:06;58.15;;;35.05;;
23838;SDS011;12100;44.384;20.272;2023-01-01T03:56:43;53.63;;;31.50;;
23838;SDS011;12100;44.384;20.272;2023-01-01T03:59:18;48.87;;;28.87;;
23838;SDS011;12100;44.384;20.272;2023-01-01T04:01:48;46.92;;;28.83;;
23838;SDS011;12100;44.384;20.272;2023-01-01T04:04:17;45.65;;;28.13;;
23838;SDS011;12100;44.384;20.272;2023-01-01T04:06:44;55.80;;;31.50;;
23838;SDS011;12100;44.384;20.272;2023-01-01T04:09:12;45.53;;;28.55;;
23838;SDS011;12100;44.384;20.272;2023-01-01T04:11:43;42.38;;;28.45;;
23838;SDS011;12100;44.384;20.272;2023-01-01T04:14:43;51.17;;;29.00;;
23838;SDS011;12100;44.384;20.272;2023-01-01T04:17:10;51.05;;;29.25;;
23838;SDS011;12100;44.384;20.272;2023-01-01T04:19:36;33.75;;;21.45;;
23838;SDS011;12100;44.384;20.272;2023-01-01T04:22:02;31.65;;;19.52;;
23838;SDS011;12100;44.384;20.272;2023-01-01T04:24:28;50.55;;;28.50;;
23838;SDS011;12100;44.384;20.272;2023-01-01T04:26:54;55.83;;;32.88;;
23838;SDS011;12100;44.384;20.272;2023-01-01T04:29:20;42.28;;;26.88;;
23838;SDS011;12100;44.384;20.272;2023-01-01T04:31:47;39.05;;;22.95;;
23838;SDS011;12100;44.384;20.272;2023-01-01T04:34:13;40.90;;;23.98;;
23838;SDS011;12100;44.384;20.272;2023-01-01T04:36:39;42.80;;;23.77;;
23838;SDS011;12100;44.384;20.272;2023-01-01T04:39:05;42.08;;;23.30;;
23838;SDS011;12100;44.384;20.272;2023-01-01T04:41:30;41.33;;;25.10;;
23838;SDS011;12100;44.384;20.272;2023-01-01T04:43:56;76.18;;;36.35;;
23838;SDS011;12100;44.384;20.272;2023-01-01T04:46:22;37.28;;;21.83;;
23838;SDS011;12100;44.384;20.272;2023-01-01T04:48:48;48.13;;;28.58;;
23838;SDS011;12100;44.384;20.272;2023-01-01T04:51:15;43.00;;;26.50;;
23838;SDS011;12100;44.384;20.272;2023-01-01T04:53:42;36.75;;;25.60;;
23838;SDS011;12100;44.384;20.272;2023-01-01T04:56:09;40.97;;;25.48;;
23838;SDS011;12100;44.384;20.272;2023-01-01T04:58:36;33.53;;;22.77;;
23838;SDS011;12100;44.384;20.272;2023-01-01T05:01:03;43.03;;;25.17;;
23838;SDS011;12100;44.384;20.272;2023-01-01T05:03:30;31.33;;;19.92;;
23838;SDS011;12100;44.384;20.272;2023-01-01T05:06:06;32.67;;;20.55;;
23838;SDS011;12100;44.384;20.272;2023-01-01T05:08:34;35.47;;;22.25;;
23838;SDS011;12100;44.384;20.272;2023-01-01T05:11:06;37.72;;;26.33;;
23838;SDS011;12100;44.384;20.272;2023-01-01T05:13:35;39.53;;;24.80;;
23838;SDS011;12100;44.384;20.272;2023-01-01T05:16:04;38.67;;;25.05;;
23838;SDS011;12100;44.384;20.272;2023-01-01T05:18:32;36.20;;;25.17;;
23838;SDS011;12100;44.384;20.272;2023-01-01T05:20:59;31.02;;;21.33;;
23838;SDS011;12100;44.384;20.272;2023-01-01T05:23:27;58.85;;;34.17;;
23838;SDS011;12100;44.384;20.272;2023-01-01T05:25:53;58.22;;;32.63;;
23838;SDS011;12100;44.384;20.272;2023-01-01T05:28:19;55.75;;;32.38;;
23838;SDS011;12100;44.384;20.272;2023-01-01T05:30:44;55.58;;;33.40;;
23838;SDS011;12100;44.384;20.272;2023-01-01T05:33:10;48.88;;;29.23;;
23838;SDS011;12100;44.384;20.272;2023-01-01T05:35:36;50.25;;;30.08;;
23838;SDS011;12100;44.384;20.272;2023-01-01T05:38:02;41.28;;;27.17;;
23838;SDS011;12100;44.384;20.272;2023-01-01T05:40:29;41.03;;;24.38;;
23838;SDS011;12100;44.384;20.272;2023-01-01T05:42:55;34.30;;;24.13;;
23838;SDS011;12100;44.384;20.272;2023-01-01T05:45:20;30.50;;;21.17;;
23838;SDS011;12100;44.384;20.272;2023-01-01T05:47:46;24.92;;;16.38;;
23838;SDS011;12100;44.384;20.272;2023-01-01T05:50:12;50.63;;;33.58;;
23838;SDS011;12100;44.384;20.272;2023-01-01T05:52:38;43.38;;;27.73;;
23838;SDS011;12100;44.384;20.272;2023-01-01T05:55:04;34.53;;;22.70;;
23838;SDS011;12100;44.384;20.272;2023-01-01T05:57:30;47.33;;;31.02;;
23838;SDS011;12100;44.384;20.272;2023-01-01T05:59:56;36.70;;;25.95;;
23838;SDS011;12100;44.384;20.272;2023-01-01T06:02:22;40.47;;;25.33;;
23838;SDS011;12100;44.384;20.272;2023-01-01T06:04:47;42.95;;;26.85;;
23838;SDS011;12100;44.384;20.272;2023-01-01T06:07:13;107.35;;;58.33;;
23838;SDS011;12100;44.384;20.272;2023-01-01T06:09:39;72.00;;;42.35;;
23838;SDS011;12100;44.384;20.272;2023-01-01T06:12:05;29.95;;;19.67;;
23838;SDS011;12100;44.384;20.272;2023-01-01T06:14:31;41.38;;;25.90;;
23838;SDS011;12100;44.384;20.272;2023-01-01T06:16:56;35.83;;;22.13;;
23838;SDS011;12100;44.384;20.272;2023-01-01T06:19:22;32.42;;;21.20;;
23838;SDS011;12100;44.384;20.272;2023-01-01T06:21:48;43.13;;;24.83;;
23838;SDS011;12100;44.384;20.272;2023-01-01T06:24:13;33.08;;;21.33;;
23838;SDS011;12100;44.384;20.272;2023-01-01T06:26:39;37.00;;;24.55;;
23838;SDS011;12100;44.384;20.272;2023-01-01T06:29:05;124.63;;;60.55;;
23838;SDS011;12100;44.384;20.272;2023-01-01T06:31:31;138.82;;;63.65;;
23838;SDS011;12100;44.384;20.272;2023-01-01T06:33:56;156.55;;;73.82;;
23838;SDS011;12100;44.384;20.272;2023-01-01T06:36:23;42.88;;;28.20;;
23838;SDS011;12100;44.384;20.272;2023-01-01T06:38:50;45.30;;;29.27;;
23838;SDS011;12100;44.384;20.272;2023-01-01T06:41:20;37.92;;;25.92;;
23838;SDS011;12100;44.384;20.272;2023-01-01T06:43:47;34.30;;;23.35;;
23838;SDS011;12100;44.384;20.272;2023-01-01T06:48:42;37.03;;;26.42;;
23838;SDS011;12100;44.384;20.272;2023-01-01T06:51:15;48.05;;;31.10;;
23838;SDS011;12100;44.384;20.272;2023-01-01T06:53:43;43.25;;;29.33;;
23838;SDS011;12100;44.384;20.272;2023-01-01T06:56:10;49.67;;;31.45;;
23838;SDS011;12100;44.384;20.272;2023-01-01T06:58:36;41.55;;;26.73;;
23838;SDS011;12100;44.384;20.272;2023-01-01T07:01:21;26.17;;;20.50;;
23838;SDS011;12100;44.384;20.272;2023-01-01T07:03:51;40.78;;;29.25;;
23838;SDS011;12100;44.384;20.272;2023-01-01T07:06:18;45.78;;;32.30;;
23838;SDS011;12100;44.384;20.272;2023-01-01T07:08:45;52.45;;;37.70;;
23838;SDS011;12100;44.384;20.272;2023-01-01T07:11:10;47.25;;;32.53;;
23838;SDS011;12100;44.384;20.272;2023-01-01T07:13:36;202.70;;;122.13;;
23838;SDS011;12100;44.384;20.272;2023-01-01T07:16:02;48.97;;;35.15;;
23838;SDS011;12100;44.384;20.272;2023-01-01T07:18:29;56.30;;;37.72;;
23838;SDS011;12100;44.384;20.272;2023-01-01T07:20:58;63.22;;;41.95;;
23838;SDS011;12100;44.384;20.272;2023-01-01T07:23:26;51.22;;;37.33;;
23838;SDS011;12100;44.384;20.272;2023-01-01T07:25:52;66.43;;;44.08;;
23838;SDS011;12100;44.384;20.272;2023-01-01T07:28:19;119.32;;;67.43;;
23838;SDS011;12100;44.384;20.272;2023-01-01T07:30:46;104.43;;;70.13;;
23838;SDS011;12100;44.384;20.272;2023-01-01T07:33:14;129.93;;;85.28;;
23838;SDS011;12100;44.384;20.272;2023-01-01T07:35:41;96.75;;;66.38;;
23838;SDS011;12100;44.384;20.272;2023-01-01T07:38:09;91.47;;;61.47;;
23838;SDS011;12100;44.384;20.272;2023-01-01T07:40:35;112.93;;;75.25;;
23838;SDS011;12100;44.384;20.272;2023-01-01T07:43:00;107.15;;;72.57;;
23838;SDS011;12100;44.384;20.272;2023-01-01T07:45:26;91.43;;;67.47;;
23838;SDS011;12100;44.384;20.272;2023-01-01T07:47:52;77.03;;;58.60;;
23838;SDS011;12100;44.384;20.272;2023-01-01T07:50:19;77.63;;;58.97;;
23838;SDS011;12100;44.384;20.272;2023-01-01T07:52:46;64.20;;;46.60;;
23838;SDS011;12100;44.384;20.272;2023-01-01T07:55:12;35.22;;;29.20;;
23838;SDS011;12100;44.384;20.272;2023-01-01T07:57:39;38.42;;;28.98;;
23838;SDS011;12100;44.384;20.272;2023-01-01T08:00:06;42.72;;;30.40;;
23838;SDS011;12100;44.384;20.272;2023-01-01T08:02:34;41.22;;;27.67;;
23838;SDS011;12100;44.384;20.272;2023-01-01T08:04:59;38.75;;;30.83;;
23838;SDS011;12100;44.384;20.272;2023-01-01T08:07:25;55.95;;;45.83;;
23838;SDS011;12100;44.384;20.272;2023-01-01T08:09:51;26.42;;;21.40;;
23838;SDS011;12100;44.384;20.272;2023-01-01T08:12:16;21.30;;;16.50;;
23838;SDS011;12100;44.384;20.272;2023-01-01T08:14:42;29.02;;;23.10;;
23838;SDS011;12100;44.384;20.272;2023-01-01T08:17:08;29.38;;;21.83;;
23838;SDS011;12100;44.384;20.272;2023-01-01T08:19:33;30.63;;;24.50;;
23838;SDS011;12100;44.384;20.272;2023-01-01T08:21:59;42.28;;;32.28;;
23838;SDS011;12100;44.384;20.272;2023-01-01T08:24:25;45.40;;;33.05;;
23838;SDS011;12100;44.384;20.272;2023-01-01T08:26:50;45.30;;;40.20;;
23838;SDS011;12100;44.384;20.272;2023-01-01T08:29:17;29.17;;;25.98;;
23838;SDS011;12100;44.384;20.272;2023-01-01T08:31:43;25.88;;;21.65;;
23838;SDS011;12100;44.384;20.272;2023-01-01T08:34:09;29.60;;;25.02;;
23838;SDS011;12100;44.384;20.272;2023-01-01T08:36:35;20.33;;;17.45;;
23838;SDS011;12100;44.384;20.272;2023-01-01T08:39:01;24.75;;;22.23;;
23838;SDS011;12100;44.384;20.272;2023-01-01T08:41:27;27.92;;;25.20;;
23838;SDS011;12100;44.384;20.272;2023-01-01T08:43:53;22.23;;;19.92;;
23838;SDS011;12100;44.384;20.272;2023-01-01T08:46:19;19.35;;;17.42;;
23838;SDS011;12100;44.384;20.272;2023-01-01T08:48:44;20.38;;;18.20;;
23838;SDS011;12100;44.384;20.272;2023-01-01T08:51:10;93.80;;;65.32;;
23838;SDS011;12100;44.384;20.272;2023-01-01T08:53:36;50.80;;;37.13;;
23838;SDS011;12100;44.384;20.272;2023-01-01T08:56:05;28.23;;;21.90;;
23838;SDS011;12100;44.384;20.272;2023-01-01T08:58:34;18.63;;;16.73;;
23838;SDS011;12100;44.384;20.272;2023-01-01T09:01:01;19.40;;;17.30;;
23838;SDS011;12100;44.384;20.272;2023-01-01T09:03:27;32.78;;;23.83;;
23838;SDS011;12100;44.384;20.272;2023-01-01T09:05:53;22.98;;;20.58;;
23838;SDS011;12100;44.384;20.272;2023-01-01T09:08:19;25.27;;;20.40;;
23838;SDS011;12100;44.384;20.272;2023-01-01T09:10:45;20.20;;;17.08;;
23838;SDS011;12100;44.384;20.272;2023-01-01T09:13:12;29.90;;;23.65;;
23838;SDS011;12100;44.384;20.272;2023-01-01T09:15:40;18.80;;;16.83;;
23838;SDS011;12100;44.384;20.272;2023-01-01T09:18:07;26.10;;;21.48;;
23838;SDS011;12100;44.384;20.272;2023-01-01T09:20:33;17.60;;;15.65;;
23838;SDS011;12100;44.384;20.272;2023-01-01T09:22:59;30.17;;;26.98;;
23838;SDS011;12100;44.384;20.272;2023-01-01T09:25:25;23.45;;;21.10;;
23838;SDS011;12100;44.384;20.272;2023-01-01T09:27:57;16.63;;;13.65;;
23838;SDS011;12100;44.384;20.272;2023-01-01T09:30:27;25.33;;;22.05;;
23838;SDS011;12100;44.384;20.272;2023-01-01T09:32:53;15.63;;;13.98;;
23838;SDS011;12100;44.384;20.272;2023-01-01T09:35:19;11.18;;;9.98;;
23838;SDS011;12100;44.384;20.272;2023-01-01T09:37:45;12.73;;;11.43;;
23838;SDS011;12100;44.384;20.272;2023-01-01T09:40:20;26.88;;;24.10;;
23838;SDS011;12100;44.384;20.272;2023-01-01T09:42:48;16.98;;;14.05;;
23838;SDS011;12100;44.384;20.272;2023-01-01T09:45:25;13.77;;;12.32;;
23838;SDS011;12100;44.384;20.272;2023-01-01T09:48:12;26.15;;;21.50;;
23838;SDS011;12100;44.384;20.272;2023-01-01T09:50:40;20.67;;;17.58;;
23838;SDS011;12100;44.384;20.272;2023-01-01T09:53:16;29.45;;;25.83;;
23838;SDS011;12100;44.384;20.272;2023-01-01T09:55:56;15.57;;;12.65;;
23838;SDS011;12100;44.384;20.272;2023-01-01T09:58:36;17.60;;;12.48;;
23838;SDS011;12100;44.384;20.272;2023-01-01T10:01:08;13.77;;;12.35;;
23838;SDS011;12100;44.384;20.272;2023-01-01T10:03:39;39.30;;;29.50;;
23838;SDS011;12100;44.384;20.272;2023-01-01T10:09:05;14.15;;;12.70;;
23838;SDS011;12100;44.384;20.272;2023-01-01T10:14:53;19.10;;;15.48;;
23838;SDS011;12100;44.384;20.272;2023-01-01T10:17:01;17.10;;;15.30;;
23838;SDS011;12100;44.384;20.272;2023-01-01T10:24:56;16.75;;;13.95;;
23838;SDS011;12100;44.384;20.272;2023-01-01T10:27:40;17.90;;;14.13;;
23838;SDS011;12100;44.384;20.272;2023-01-01T10:30:29;22.35;;;19.60;;
23838;SDS011;12100;44.384;20.272;2023-01-01T10:32:55;29.63;;;23.67;;
23838;SDS011;12100;44.384;20.272;2023-01-01T10:35:23;23.33;;;17.58;;
23838;SDS011;12100;44.384;20.272;2023-01-01T10:38:02;14.40;;;12.88;;
23838;SDS011;12100;44.384;20.272;2023-01-01T10:40:29;13.38;;;11.50;;
23838;SDS011;12100;44.384;20.272;2023-01-01T10:42:56;25.92;;;16.85;;
23838;SDS011;12100;44.384;20.272;2023-01-01T10:45:33;22.15;;;17.30;;
23838;SDS011;12100;44.384;20.272;2023-01-01T10:48:08;18.73;;;14.90;;
23838;SDS011;12100;44.384;20.272;2023-01-01T10:50:46;23.33;;;18.98;;
23838;SDS011;12100;44.384;20.272;2023-01-01T10:53:25;51.58;;;36.97;;
23838;SDS011;12100;44.384;20.272;2023-01-01T11:01:24;16.30;;;14.05;;
23838;SDS011;12100;44.384;20.272;2023-01-01T11:12:04;14.30;;;11.75;;
23838;SDS011;12100;44.384;20.272;2023-01-01T11:14:38;18.75;;;16.83;;
23838;SDS011;12100;44.384;20.272;2023-01-01T11:17:07;17.05;;;12.35;;
23838;SDS011;12100;44.384;20.272;2023-01-01T11:19:35;15.82;;;14.18;;
23838;SDS011;12100;44.384;20.272;2023-01-01T11:22:02;14.30;;;12.13;;
23838;SDS011;12100;44.384;20.272;2023-01-01T11:24:33;13.43;;;12.00;;
23838;SDS011;12100;44.384;20.272;2023-01-01T11:27:19;14.98;;;11.25;;
23838;SDS011;12100;44.384;20.272;2023-01-01T11:29:47;12.90;;;11.50;;
23838;SDS011;12100;44.384;20.272;2023-01-01T11:32:20;16.48;;;14.70;;
23838;SDS011;12100;44.384;20.272;2023-01-01T11:34:57;20.52;;;18.42;;
23838;SDS011;12100;44.384;20.272;2023-01-01T11:37:30;19.23;;;17.00;;
23838;SDS011;12100;44.384;20.272;2023-01-01T11:39:58;16.50;;;14.43;;
23838;SDS011;12100;44.384;20.272;2023-01-01T11:42:26;27.17;;;23.10;;
23838;SDS011;12100;44.384;20.272;2023-01-01T11:45:01;14.47;;;12.27;;
23838;SDS011;12100;44.384;20.272;2023-01-01T11:47:34;13.90;;;12.00;;
23838;SDS011;12100;44.384;20.272;2023-01-01T11:52:41;14.82;;;11.02;;
23838;SDS011;12100;44.384;20.272;2023-01-01T11:58:16;14.32;;;10.43;;
23838;SDS011;12100;44.384;20.272;2023-01-01T12:00:46;14.45;;;11.23;;
23838;SDS011;12100;44.384;20.272;2023-01-01T12:03:18;16.23;;;13.10;;
23838;SDS011;12100;44.384;20.272;2023-01-01T12:08:18;14.23;;;11.35;;
23838;SDS011;12100;44.384;20.272;2023-01-01T12:11:06;14.10;;;11.90;;
23838;SDS011;12100;44.384;20.272;2023-01-01T12:13:47;15.10;;;13.38;;
23838;SDS011;12100;44.384;20.272;2023-01-01T12:16:38;15.85;;;12.18;;
23838;SDS011;12100;44.384;20.272;2023-01-01T12:19:14;15.48;;;11.27;;
23838;SDS011;12100;44.384;20.272;2023-01-01T12:21:47;22.55;;;14.45;;
23838;SDS011;12100;44.384;20.272;2023-01-01T12:24:16;16.85;;;13.55;;
23838;SDS011;12100;44.384;20.272;2023-01-01T12:27:01;12.68;;;11.27;;
23838;SDS011;12100;44.384;20.272;2023-01-01T12:43:07;19.00;;;14.57;;
23838;SDS011;12100;44.384;20.272;2023-01-01T12:46:04;22.92;;;18.38;;
23838;SDS011;12100;44.384;20.272;2023-01-01T12:57:13;18.92;;;13.38;;
23838;SDS011;12100;44.384;20.272;2023-01-01T12:59:59;25.70;;;16.33;;
23838;SDS011;12100;44.384;20.272;2023-01-01T13:02:28;26.13;;;18.48;;
23838;SDS011;12100;44.384;20.272;2023-01-01T13:05:12;20.35;;;13.48;;
23838;SDS011;12100;44.384;20.272;2023-01-01T13:07:43;74.45;;;46.88;;
23838;SDS011;12100;44.384;20.272;2023-01-01T13:12:50;20.35;;;11.80;;
23838;SDS011;12100;44.384;20.272;2023-01-01T13:18:06;26.15;;;17.10;;
23838;SDS011;12100;44.384;20.272;2023-01-01T13:20:45;18.58;;;12.65;;
23838;SDS011;12100;44.384;20.272;2023-01-01T13:45:13;17.38;;;13.82;;
23838;SDS011;12100;44.384;20.272;2023-01-01T13:50:32;20.35;;;13.45;;
23838;SDS011;12100;44.384;20.272;2023-01-01T14:01:43;20.83;;;15.02;;
23838;SDS011;12100;44.384;20.272;2023-01-01T14:04:55;22.70;;;15.13;;
23838;SDS011;12100;44.384;20.272;2023-01-01T14:07:09;27.57;;;19.67;;
23838;SDS011;12100;44.384;20.272;2023-01-01T14:09:44;17.95;;;11.07;;
23838;SDS011;12100;44.384;20.272;2023-01-01T14:12:15;17.58;;;11.88;;
23838;SDS011;12100;44.384;20.272;2023-01-01T14:14:45;23.67;;;15.75;;
23838;SDS011;12100;44.384;20.272;2023-01-01T14:17:14;27.27;;;15.40;;
23838;SDS011;12100;44.384;20.272;2023-01-01T14:19:41;24.95;;;16.25;;
23838;SDS011;12100;44.384;20.272;2023-01-01T14:22:08;28.42;;;21.10;;
23838;SDS011;12100;44.384;20.272;2023-01-01T14:24:42;23.95;;;17.58;;
23838;SDS011;12100;44.384;20.272;2023-01-01T14:27:14;25.95;;;18.15;;
23838;SDS011;12100;44.384;20.272;2023-01-01T14:29:45;18.83;;;14.23;;
23838;SDS011;12100;44.384;20.272;2023-01-01T14:32:14;46.53;;;30.17;;
23838;SDS011;12100;44.384;20.272;2023-01-01T14:34:45;34.03;;;25.88;;
23838;SDS011;12100;44.384;20.272;2023-01-01T14:37:20;30.40;;;22.60;;
23838;SDS011;12100;44.384;20.272;2023-01-01T14:40:03;21.38;;;16.05;;
23838;SDS011;12100;44.384;20.272;2023-01-01T14:42:38;29.80;;;22.00;;
23838;SDS011;12100;44.384;20.272;2023-01-01T14:45:05;31.83;;;21.38;;
23838;SDS011;12100;44.384;20.272;2023-01-01T14:47:37;20.75;;;12.63;;
23838;SDS011;12100;44.384;20.272;2023-01-01T14:50:04;48.03;;;25.80;;
23838;SDS011;12100;44.384;20.272;2023-01-01T14:52:39;45.47;;;25.40;;
23838;SDS011;12100;44.384;20.272;2023-01-01T14:55:05;35.20;;;20.33;;
23838;SDS011;12100;44.384;20.272;2023-01-01T14:57:33;32.70;;;18.13;;
23838;SDS011;12100;44.384;20.272;2023-01-01T15:00:00;28.55;;;20.38;;
23838;SDS011;12100;44.384;20.272;2023-01-01T15:02:37;21.83;;;12.05;;
23838;SDS011;12100;44.384;20.272;2023-01-01T15:08:00;19.20;;;12.00;;
23838;SDS011;12100;44.384;20.272;2023-01-01T15:10:29;82.22;;;49.13;;
23838;SDS011;12100;44.384;20.272;2023-01-01T15:12:56;23.15;;;15.07;;
23838;SDS011;12100;44.384;20.272;2023-01-01T15:15:33;30.13;;;20.55;;
23838;SDS011;12100;44.384;20.272;2023-01-01T15:23:53;36.00;;;25.70;;
23838;SDS011;12100;44.384;20.272;2023-01-01T15:26:27;31.35;;;22.20;;
23838;SDS011;12100;44.384;20.272;2023-01-01T15:28:54;35.70;;;30.65;;
23838;SDS011;12100;44.384;20.272;2023-01-01T15:31:31;38.70;;;29.30;;
23838;SDS011;12100;44.384;20.272;2023-01-01T15:33:59;22.10;;;15.13;;
23838;SDS011;12100;44.384;20.272;2023-01-01T15:36:25;187.65;;;104.75;;
23838;SDS011;12100;44.384;20.272;2023-01-01T15:38:50;89.55;;;53.60;;
23838;SDS011;12100;44.384;20.272;2023-01-01T15:41:51;38.90;;;23.02;;
23838;SDS011;12100;44.384;20.272;2023-01-01T15:44:20;35.40;;;23.92;;
23838;SDS011;12100;44.384;20.272;2023-01-01T15:47:21;37.75;;;23.02;;
23838;SDS011;12100;44.384;20.272;2023-01-01T15:50:05;44.90;;;25.73;;
23838;SDS011;12100;44.384;20.272;2023-01-01T15:53:35;58.25;;;34.45;;
23838;SDS011;12100;44.384;20.272;2023-01-01T15:55:55;48.53;;;30.80;;
23838;SDS011;12100;44.384;20.272;2023-01-01T16:01:02;64.45;;;43.30;;
23838;SDS011;12100;44.384;20.272;2023-01-01T16:03:31;54.90;;;37.58;;
23838;SDS011;12100;44.384;20.272;2023-01-01T16:05:59;30.85;;;19.60;;
23838;SDS011;12100;44.384;20.272;2023-01-01T16:08:25;28.63;;;18.58;;
23838;SDS011;12100;44.384;20.272;2023-01-01T16:10:51;36.45;;;19.35;;
23838;SDS011;12100;44.384;20.272;2023-01-01T16:13:17;32.75;;;19.58;;
23838;SDS011;12100;44.384;20.272;2023-01-01T16:15:49;113.55;;;54.45;;
23838;SDS011;12100;44.384;20.272;2023-01-01T16:18:16;67.20;;;36.95;;
23838;SDS011;12100;44.384;20.272;2023-01-01T16:20:43;60.65;;;33.38;;
23838;SDS011;12100;44.384;20.272;2023-01-01T16:23:10;45.53;;;27.23;;
23838;SDS011;12100;44.384;20.272;2023-01-01T16:25:36;45.45;;;27.25;;
23838;SDS011;12100;44.384;20.272;2023-01-01T16:28:02;44.72;;;23.77;;
23838;SDS011;12100;44.384;20.272;2023-01-01T16:30:30;29.38;;;18.85;;
23838;SDS011;12100;44.384;20.272;2023-01-01T16:32:56;29.75;;;19.30;;
23838;SDS011;12100;44.384;20.272;2023-01-01T16:35:22;34.13;;;22.80;;
23838;SDS011;12100;44.384;20.272;2023-01-01T16:37:48;26.25;;;15.85;;
23838;SDS011;12100;44.384;20.272;2023-01-01T16:40:14;107.75;;;64.75;;
23838;SDS011;12100;44.384;20.272;2023-01-01T16:42:40;72.07;;;44.15;;
23838;SDS011;12100;44.384;20.272;2023-01-01T16:45:06;50.10;;;30.13;;
23838;SDS011;12100;44.384;20.272;2023-01-01T16:47:32;69.20;;;48.65;;
23838;SDS011;12100;44.384;20.272;2023-01-01T16:49:58;131.85;;;97.30;;
23838;SDS011;12100;44.384;20.272;2023-01-01T16:52:23;47.63;;;34.22;;
23838;SDS011;12100;44.384;20.272;2023-01-01T16:54:49;48.58;;;35.63;;